Time,TemperatureF,DewpointF,PressureIn,WindDirection,WindDirectionDegrees,WindSpeedMPH,WindSpeedGustMPH,Humidity,HourlyPrecipIn,Conditions,Clouds,dailyrainin,SolarRadiationWatts/m^2,SoftwareType,DateUTC
2013-03-29 00:00:00,58.6,52.1,30.05,North,350,1.0,1.0,79,0.00,,,0.00,0,Wunderground v.1.15,2013-03-29 07:00:00,
2013-03-29 00:05:00,58.6,52.1,30.05,North,355,2.0,2.0,79,0.00,,,0.00,0,Wunderground v.1.15,2013-03-29 07:05:00,
2013-03-29 00:10:00,58.5,52.0,30.05,NNW,338,3.0,3.0,79,0.00,,,0.00,0,Wunderground v.1.15,2013-03-29 07:10:00,
2013-03-29 00:15:00,58.5,52.4,30.05,NNW,344,3.0,5.0,80,0.00,,,0.00,0,Wunderground v.1.15,2013-03-29 07:15:00,
2013-03-29 00:20:00,58.4,52.3,30.05,NW,323,3.0,3.0,80,0.00,,,0.00,0,Wunderground v.1.15,2013-03-29 07:20:00,
2013-03-29 00:25:00,58.3,52.2,30.05,NNE,24,3.0,5.0,80,0.00,,,0.00,0,Wunderground v.1.15,2013-03-29 07:25:00,
2013-03-29 00:30:00,58.2,52.1,30.05,NNW,344,3.0,3.0,80,0.00,,,0.00,0,Wunderground v.1.15,2013-03-29 07:30:00,
2013-03-29 00:35:00,58.0,51.9,30.05,NNW,330,3.0,5.0,80,0.00,,,0.00,0,Wunderground v.1.15,2013-03-29 07:35:00,
2013-03-29 00:40:00,57.9,51.8,30.05,NW,326,2.0,5.0,80,0.00,,,0.00,0,Wunderground v.1.15,2013-03-29 07:40:00,
2013-03-29 00:45:00,57.8,51.7,30.05,NNW,328,2.0,5.0,80,0.00,,,0.00,0,Wunderground v.1.15,2013-03-29 07:45:00,
2013-03-29 00:50:00,57.6,51.5,30.05,NNW,336,2.0,2.0,80,0.00,,,0.00,0,Wunderground v.1.15,2013-03-29 07:50:00,
2013-03-29 00:55:00,57.4,51.6,30.05,NW,312,2.0,5.0,81,0.00,,,0.00,0,Wunderground v.1.15,2013-03-29 07:55:00,
2013-03-29 01:00:00,57.3,51.5,30.05,WNW,300,3.0,3.0,81,0.00,,,0.00,0,Wunderground v.1.15,2013-03-29 08:00:00,
2013-03-29 01:05:00,57.3,51.5,30.05,NW,309,2.0,4.0,81,0.00,,,0.00,0,Wunderground v.1.15,2013-03-29 08:05:00,
2013-03-29 01:10:00,57.3,51.5,30.05,North,349,3.0,5.0,81,0.00,,,0.00,0,Wunderground v.1.15,2013-03-29 08:10:00,
2013-03-29 01:15:00,57.1,51.7,30.05,WNW,293,3.0,5.0,82,0.00,,,0.00,0,Wunderground v.1.15,2013-03-29 08:15:00,
2013-03-29 01:20:00,56.9,51.5,30.05,NW,308,3.0,3.0,82,0.00,,,0.00,0,Wunderground v.1.15,2013-03-29 08:20:00,
2013-03-29 01:25:00,56.6,51.5,30.05,WNW,301,2.0,5.0,83,0.00,,,0.00,0,Wunderground v.1.15,2013-03-29 08:25:00,
2013-03-29 01:30:00,56.3,51.2,30.05,NNW,333,3.0,6.0,83,0.00,,,0.00,0,Wunderground v.1.15,2013-03-29 08:30:00,
2013-03-29 01:35:00,56.1,51.3,30.05,NW,306,4.0,6.0,84,0.00,,,0.00,0,Wunderground v.1.15,2013-03-29 08:35:00,
2013-03-29 01:40:00,56.1,51.7,30.05,NNW,343,4.0,4.0,85,0.00,,,0.00,0,Wunderground v.1.15,2013-03-29 08:40:00,
2013-03-29 01:45:00,56.2,51.7,30.05,NNW,329,4.0,5.0,85,0.00,,,0.00,0,Wunderground v.1.15,2013-03-29 08:45:00,
2013-03-29 01:50:00,56.2,51.7,30.05,North,355,3.0,3.0,85,0.00,,,0.00,0,Wunderground v.1.15,2013-03-29 08:50:00,
2013-03-29 01:55:00,56.2,51.4,30.05,NNE,24,3.0,5.0,84,0.00,,,0.00,0,Wunderground v.1.15,2013-03-29 08:55:00,
2013-03-29 02:00:00,56.0,51.2,30.05,NNE,26,3.0,5.0,84,0.00,,,0.00,0,Wunderground v.1.15,2013-03-29 09:00:00,
2013-03-29 02:05:00,55.9,51.5,30.05,NNW,336,3.0,5.0,85,0.00,,,0.00,0,Wunderground v.1.15,2013-03-29 09:05:00,
2013-03-29 02:10:00,55.8,51.4,30.05,NNW,327,4.0,7.0,85,0.00,,,0.00,0,Wunderground v.1.15,2013-03-29 09:10:00,
2013-03-29 02:15:00,55.7,51.3,30.05,North,10,4.0,7.0,85,0.00,,,0.00,0,Wunderground v.1.15,2013-03-29 09:15:00,
2013-03-29 02:20:00,55.6,51.2,30.05,NNW,337,3.0,3.0,85,0.00,,,0.00,0,Wunderground v.1.15,2013-03-29 09:20:00,
2013-03-29 02:25:00,55.5,51.1,30.05,North,355,3.0,4.0,85,0.00,,,0.00,0,Wunderground v.1.15,2013-03-29 09:25:00,
2013-03-29 02:35:00,55.4,51.0,30.05,NNE,24,3.0,5.0,85,0.00,,,0.00,0,Wunderground v.1.15,2013-03-29 09:35:00,
2013-03-29 02:45:00,55.3,50.9,30.05,NNE,19,3.0,7.0,85,0.00,,,0.00,0,Wunderground v.1.15,2013-03-29 09:45:00,
2013-03-29 02:48:00,55.5,51.1,30.05,NNW,335,3.0,5.0,85,0.00,,,0.00,0,Wunderground v.1.15,2013-03-29 09:48:00,
2013-03-29 02:50:00,55.1,50.7,30.05,NW,315,3.0,6.0,85,0.00,,,0.00,0,Wunderground v.1.15,2013-03-29 09:50:00,
2013-03-29 02:55:00,55.0,50.6,30.06,NNW,346,2.0,6.0,85,0.00,,,0.00,0,Wunderground v.1.15,2013-03-29 09:55:00,
2013-03-29 02:58:00,55.3,50.9,30.05,NW,309,3.0,5.0,85,0.00,,,0.00,0,Wunderground v.1.15,2013-03-29 09:58:00,
2013-03-29 03:00:00,54.8,50.4,30.05,NNW,342,2.0,6.0,85,0.00,,,0.00,0,Wunderground v.1.15,2013-03-29 10:00:00,
2013-03-29 03:05:00,54.8,50.7,30.05,North,351,3.0,6.0,86,0.00,,,0.00,0,Wunderground v.1.15,2013-03-29 10:05:00,
2013-03-29 03:15:00,54.7,50.3,30.05,NW,325,3.0,5.0,85,0.00,,,0.00,0,Wunderground v.1.15,2013-03-29 10:15:00,
2013-03-29 03:20:00,54.7,50.3,30.05,NW,319,2.0,2.0,85,0.00,,,0.00,0,Wunderground v.1.15,2013-03-29 10:20:00,
2013-03-29 03:25:00,54.6,50.2,30.05,NNW,344,3.0,4.0,85,0.00,,,0.00,0,Wunderground v.1.15,2013-03-29 10:25:00,
2013-03-29 03:28:00,54.8,50.4,30.05,NNW,328,3.0,5.0,85,0.00,,,0.00,0,Wunderground v.1.15,2013-03-29 10:28:00,
2013-03-29 03:48:00,54.5,50.1,30.05,NNE,15,3.0,7.0,85,0.00,,,0.00,0,Wunderground v.1.15,2013-03-29 10:48:00,
2013-03-29 03:53:00,54.4,50.0,30.05,North,5,3.0,7.0,85,0.00,,,0.00,0,Wunderground v.1.15,2013-03-29 10:53:00,
2013-03-29 03:55:00,53.9,49.8,30.05,North,355,3.0,5.0,86,0.00,,,0.00,0,Wunderground v.1.15,2013-03-29 10:55:00,
2013-03-29 03:58:00,54.3,49.9,30.05,NNE,19,2.0,5.0,85,0.00,,,0.00,0,Wunderground v.1.15,2013-03-29 10:58:00,
2013-03-29 04:05:00,53.9,49.8,30.05,North,9,3.0,5.0,86,0.00,,,0.00,0,Wunderground v.1.15,2013-03-29 11:05:00,
2013-03-29 04:08:00,54.1,50.0,30.05,North,9,2.0,5.0,86,0.00,,,0.00,0,Wunderground v.1.15,2013-03-29 11:08:00,
2013-03-29 04:15:00,53.7,49.6,30.05,NNW,346,3.0,5.0,86,0.00,,,0.00,0,Wunderground v.1.15,2013-03-29 11:15:00,
2013-03-29 04:18:00,53.9,49.8,30.05,North,360,3.0,5.0,86,0.00,,,0.00,0,Wunderground v.1.15,2013-03-29 11:18:00,
2013-03-29 04:28:00,53.7,49.6,30.05,North,5,3.0,3.0,86,0.00,,,0.00,0,Wunderground v.1.15,2013-03-29 11:28:00,
2013-03-29 04:38:00,53.6,49.5,30.05,North,350,3.0,3.0,86,0.00,,,0.00,0,Wunderground v.1.15,2013-03-29 11:38:00,
2013-03-29 04:43:00,53.6,49.5,30.05,NNE,17,3.0,7.0,86,0.00,,,0.00,0,Wunderground v.1.15,2013-03-29 11:43:00,
2013-03-29 04:48:00,53.5,49.4,30.04,NE,38,4.0,4.0,86,0.00,,,0.00,0,Wunderground v.1.15,2013-03-29 11:48:00,
2013-03-29 04:53:00,53.4,49.3,30.05,North,355,3.0,5.0,86,0.00,,,0.00,0,Wunderground v.1.15,2013-03-29 11:53:00,
2013-03-29 04:55:00,53.2,49.1,30.05,NNW,334,2.0,5.0,86,0.00,,,0.00,0,Wunderground v.1.15,2013-03-29 11:55:00,
2013-03-29 04:58:00,53.3,49.2,30.05,North,355,3.0,5.0,86,0.00,,,0.00,0,Wunderground v.1.15,2013-03-29 11:58:00,
2013-03-29 05:03:00,53.2,49.1,30.05,NNE,31,3.0,5.0,86,0.00,,,0.00,0,Wunderground v.1.15,2013-03-29 12:03:00,
2013-03-29 05:05:00,53.1,49.0,30.05,NNW,333,2.0,5.0,86,0.00,,,0.00,0,Wunderground v.1.15,2013-03-29 12:05:00,
2013-03-29 05:08:00,53.2,49.1,30.05,NE,40,3.0,5.0,86,0.00,,,0.00,0,Wunderground v.1.15,2013-03-29 12:08:00,
2013-03-29 05:15:00,53.0,48.9,30.05,NW,321,1.0,5.0,86,0.00,,,0.00,0,Wunderground v.1.15,2013-03-29 12:15:00,
2013-03-29 05:18:00,53.2,49.1,30.05,North,5,2.0,2.0,86,0.00,,,0.00,0,Wunderground v.1.15,2013-03-29 12:18:00,
2013-03-29 05:28:00,53.1,48.7,30.05,NW,320,1.0,5.0,85,0.00,,,0.00,0,Wunderground v.1.15,2013-03-29 12:28:00,
2013-03-29 05:38:00,52.8,48.7,30.05,NW,316,2.0,5.0,86,0.00,,,0.00,0,Wunderground v.1.15,2013-03-29 12:38:00,
2013-03-29 05:43:00,52.6,48.5,30.06,NW,307,2.0,5.0,86,0.00,,,0.00,0,Wunderground v.1.15,2013-03-29 12:43:00,
2013-03-29 05:48:00,52.5,48.4,30.06,NW,315,2.0,2.0,86,0.00,,,0.00,0,Wunderground v.1.15,2013-03-29 12:48:00,
2013-03-29 05:53:00,52.1,48.0,30.06,NNW,333,2.0,3.0,86,0.00,,,0.00,0,Wunderground v.1.15,2013-03-29 12:53:00,
2013-03-29 05:58:00,52.0,48.3,30.06,NW,310,2.0,5.0,87,0.00,,,0.00,0,Wunderground v.1.15,2013-03-29 12:58:00,
2013-03-29 06:03:00,52.0,48.3,30.06,WNW,292,3.0,5.0,87,0.00,,,0.00,0,Wunderground v.1.15,2013-03-29 13:03:00,
2013-03-29 06:08:00,51.9,48.2,30.06,NW,326,3.0,3.0,87,0.00,,,0.00,0,Wunderground v.1.15,2013-03-29 13:08:00,
2013-03-29 06:13:00,51.8,48.4,30.06,NW,323,2.0,5.0,88,0.00,,,0.00,0,Wunderground v.1.15,2013-03-29 13:13:00,
2013-03-29 06:18:00,51.9,48.5,30.06,NNW,338,1.0,5.0,88,0.00,,,0.00,0,Wunderground v.1.15,2013-03-29 13:18:00,
2013-03-29 06:28:00,52.1,48.7,30.06,NNE,12,2.0,5.0,88,0.00,,,0.00,0,Wunderground v.1.15,2013-03-29 13:28:00,
2013-03-29 06:33:00,52.1,48.7,30.06,NNW,327,2.0,5.0,88,0.00,,,0.00,0,Wunderground v.1.15,2013-03-29 13:33:00,
2013-03-29 06:38:00,52.0,48.6,30.06,NW,308,3.0,5.0,88,0.00,,,0.00,0,Wunderground v.1.15,2013-03-29 13:38:00,
2013-03-29 06:43:00,51.8,48.4,30.06,NNW,328,4.0,5.0,88,0.00,,,0.00,0,Wunderground v.1.15,2013-03-29 13:43:00,
2013-03-29 06:48:00,51.7,48.3,30.06,NNW,334,5.0,5.0,88,0.00,,,0.00,0,Wunderground v.1.15,2013-03-29 13:48:00,
2013-03-29 06:53:00,51.6,48.2,30.06,NNW,331,5.0,5.0,88,0.00,,,0.00,0,Wunderground v.1.15,2013-03-29 13:53:00,
2013-03-29 06:58:00,51.6,48.2,30.06,NW,317,4.0,5.0,88,0.00,,,0.00,5,Wunderground v.1.15,2013-03-29 13:58:00,
2013-03-29 07:08:00,51.7,48.6,30.06,NW,324,4.0,4.0,89,0.00,,,0.00,12,Wunderground v.1.15,2013-03-29 14:08:00,
2013-03-29 07:13:00,51.8,48.7,30.07,NW,324,3.0,5.0,89,0.00,,,0.00,14,Wunderground v.1.15,2013-03-29 14:13:00,
2013-03-29 07:18:00,51.9,48.8,30.07,NW,305,3.0,5.0,89,0.00,,,0.00,18,Wunderground v.1.15,2013-03-29 14:18:00,
2013-03-29 07:28:00,52.2,49.1,30.07,NW,322,4.0,4.0,89,0.00,,,0.00,23,Wunderground v.1.15,2013-03-29 14:28:00,
2013-03-29 07:33:00,52.3,48.9,30.07,NNW,327,4.0,5.0,88,0.00,,,0.00,26,Wunderground v.1.15,2013-03-29 14:33:00,
2013-03-29 07:43:00,52.7,49.2,30.07,NNW,330,4.0,5.0,88,0.00,,,0.00,32,Wunderground v.1.15,2013-03-29 14:43:00,
2013-03-29 07:48:00,52.9,49.4,30.07,NNE,15,4.0,4.0,88,0.00,,,0.00,32,Wunderground v.1.15,2013-03-29 14:48:00,
2013-03-29 07:53:00,53.2,49.4,30.07,NNW,347,3.0,5.0,87,0.00,,,0.00,33,Wunderground v.1.15,2013-03-29 14:53:00,
2013-03-29 07:58:00,53.3,49.5,30.07,NE,45,3.0,5.0,87,0.00,,,0.00,35,Wunderground v.1.15,2013-03-29 14:58:00,
2013-03-29 08:03:00,53.3,49.2,30.07,NNW,334,3.0,7.0,86,0.00,,,0.00,39,Wunderground v.1.15,2013-03-29 15:03:00,
2013-03-29 08:08:00,53.5,49.4,30.07,North,11,3.0,5.0,86,0.00,,,0.00,46,Wunderground v.1.15,2013-03-29 15:08:00,
2013-03-29 08:13:00,53.6,49.2,30.07,North,5,4.0,5.0,85,0.00,,,0.00,49,Wunderground v.1.15,2013-03-29 15:13:00,
2013-03-29 08:18:00,53.8,49.1,30.07,NNW,347,4.0,4.0,84,0.00,,,0.00,53,Wunderground v.1.15,2013-03-29 15:18:00,
2013-03-29 08:23:00,54.1,49.4,30.07,North,9,4.0,5.0,84,0.00,,,0.00,54,Wunderground v.1.15,2013-03-29 15:23:00,
2013-03-29 08:28:00,54.2,49.1,30.07,North,355,4.0,5.0,83,0.00,,,0.00,56,Wunderground v.1.15,2013-03-29 15:28:00,
2013-03-29 08:33:00,54.3,49.2,30.07,North,355,4.0,5.0,83,0.00,,,0.00,56,Wunderground v.1.15,2013-03-29 15:33:00,
2013-03-29 08:43:00,55.2,49.5,30.07,North,360,2.0,5.0,81,0.00,,,0.00,60,Wunderground v.1.15,2013-03-29 15:43:00,
2013-03-29 08:48:00,55.3,49.2,30.07,NE,35,3.0,5.0,80,0.00,,,0.00,62,Wunderground v.1.15,2013-03-29 15:48:00,
2013-03-29 08:53:00,55.6,49.2,30.07,NNE,22,3.0,5.0,79,0.00,,,0.00,65,Wunderground v.1.15,2013-03-29 15:53:00,
2013-03-29 08:58:00,55.9,49.1,30.08,NNE,27,3.0,5.0,78,0.00,,,0.00,72,Wunderground v.1.15,2013-03-29 15:58:00,
2013-03-29 09:03:00,56.7,49.9,30.08,NNW,346,2.0,5.0,78,0.00,,,0.00,83,Wunderground v.1.15,2013-03-29 16:03:00,
2013-03-29 09:08:00,57.1,49.6,30.08,NW,314,2.0,5.0,76,0.00,,,0.00,98,Wunderground v.1.15,2013-03-29 16:08:00,
2013-03-29 09:13:00,57.3,49.8,30.08,NW,319,3.0,5.0,76,0.00,,,0.00,197,Wunderground v.1.15,2013-03-29 16:13:00,
2013-03-29 09:18:00,57.5,49.6,30.08,NW,304,3.0,3.0,75,0.00,,,0.00,387,Wunderground v.1.15,2013-03-29 16:18:00,
2013-03-29 09:23:00,57.6,49.7,30.08,NNW,342,3.0,5.0,75,0.00,,,0.00,401,Wunderground v.1.15,2013-03-29 16:23:00,
2013-03-29 09:28:00,58.0,49.4,30.08,NNE,15,3.0,5.0,73,0.00,,,0.00,406,Wunderground v.1.15,2013-03-29 16:28:00,
2013-03-29 09:33:00,58.1,49.5,30.08,NNE,28,3.0,5.0,73,0.00,,,0.00,432,Wunderground v.1.15,2013-03-29 16:33:00,
2013-03-29 09:38:00,58.5,49.9,30.08,NW,312,3.0,3.0,73,0.00,,,0.00,471,Wunderground v.1.15,2013-03-29 16:38:00,
2013-03-29 09:43:00,58.9,49.9,30.08,NNE,17,2.0,5.0,72,0.00,,,0.00,476,Wunderground v.1.15,2013-03-29 16:43:00,
2013-03-29 09:53:00,59.7,50.3,30.08,NE,42,2.0,5.0,71,0.00,,,0.00,506,Wunderground v.1.15,2013-03-29 16:53:00,
2013-03-29 09:58:00,59.8,50.0,30.08,NNE,13,2.0,5.0,70,0.00,,,0.00,513,Wunderground v.1.15,2013-03-29 16:58:00,
2013-03-29 10:08:00,61.0,49.6,30.08,NE,46,2.0,5.0,66,0.00,,,0.00,543,Wunderground v.1.15,2013-03-29 17:08:00,
2013-03-29 10:13:00,61.2,50.2,30.08,ENE,65,2.0,5.0,67,0.00,,,0.00,555,Wunderground v.1.15,2013-03-29 17:13:00,
2013-03-29 10:18:00,61.7,50.2,30.08,NW,324,2.0,5.0,66,0.00,,,0.00,580,Wunderground v.1.15,2013-03-29 17:18:00,
2013-03-29 10:23:00,61.9,49.6,30.08,NE,43,2.0,5.0,64,0.00,,,0.00,520,Wunderground v.1.15,2013-03-29 17:23:00,
2013-03-29 10:28:00,62.2,49.9,30.08,NE,37,3.0,5.0,64,0.00,,,0.00,629,Wunderground v.1.15,2013-03-29 17:28:00,
2013-03-29 10:33:00,62.9,50.1,30.08,NNW,345,2.0,5.0,63,0.00,,,0.00,591,Wunderground v.1.15,2013-03-29 17:33:00,
2013-03-29 10:38:00,63.5,50.2,30.08,NNE,30,1.0,5.0,62,0.00,,,0.00,638,Wunderground v.1.15,2013-03-29 17:38:00,
2013-03-29 10:48:00,63.8,50.5,30.08,NNW,338,2.0,5.0,62,0.00,,,0.00,664,Wunderground v.1.15,2013-03-29 17:48:00,
2013-03-29 10:58:00,64.1,50.8,30.08,NE,41,3.0,5.0,62,0.00,,,0.00,712,Wunderground v.1.15,2013-03-29 17:58:00,
2013-03-29 11:03:00,64.3,50.6,30.08,North,5,3.0,5.0,61,0.00,,,0.00,759,Wunderground v.1.15,2013-03-29 18:03:00,
2013-03-29 11:08:00,64.4,50.7,30.08,NNE,19,2.0,5.0,61,0.00,,,0.00,700,Wunderground v.1.15,2013-03-29 18:08:00,
2013-03-29 11:13:00,64.7,50.9,30.08,NNW,335,3.0,5.0,61,0.00,,,0.00,719,Wunderground v.1.15,2013-03-29 18:13:00,
2013-03-29 11:18:00,65.0,51.2,30.08,NNW,347,2.0,5.0,61,0.00,,,0.00,744,Wunderground v.1.15,2013-03-29 18:18:00,
2013-03-29 11:23:00,65.8,50.6,30.08,NNW,340,1.0,5.0,58,0.00,,,0.00,763,Wunderground v.1.15,2013-03-29 18:23:00,
2013-03-29 11:28:00,66.2,50.5,30.07,East,88,2.0,5.0,57,0.00,,,0.00,766,Wunderground v.1.15,2013-03-29 18:28:00,
2013-03-29 11:38:00,66.9,51.2,30.07,NNW,340,2.0,2.0,57,0.00,,,0.00,780,Wunderground v.1.15,2013-03-29 18:38:00,
2013-03-29 11:43:00,67.0,50.3,30.07,NNE,15,3.0,3.0,55,0.00,,,0.00,773,Wunderground v.1.15,2013-03-29 18:43:00,
2013-03-29 11:53:00,67.9,50.6,30.07,NNE,19,2.0,5.0,54,0.00,,,0.00,800,Wunderground v.1.15,2013-03-29 18:53:00,
2013-03-29 11:58:00,68.1,49.8,30.07,NE,52,2.0,5.0,52,0.00,,,0.00,816,Wunderground v.1.15,2013-03-29 18:58:00,
2013-03-29 12:03:00,68.5,49.7,30.07,NE,47,3.0,5.0,51,0.00,,,0.00,791,Wunderground v.1.15,2013-03-29 19:03:00,
2013-03-29 12:13:00,69.3,50.4,30.06,NNE,28,2.0,5.0,51,0.00,,,0.00,846,Wunderground v.1.15,2013-03-29 19:13:00,
2013-03-29 12:18:00,69.9,50.4,30.06,NNE,14,3.0,3.0,50,0.00,,,0.00,759,Wunderground v.1.15,2013-03-29 19:18:00,
2013-03-29 12:23:00,69.7,50.2,30.06,North,5,2.0,4.0,50,0.00,,,0.00,798,Wunderground v.1.15,2013-03-29 19:23:00,
2013-03-29 12:28:00,69.7,49.7,30.06,NNW,328,2.0,5.0,49,0.00,,,0.00,856,Wunderground v.1.15,2013-03-29 19:28:00,
2013-03-29 12:33:00,70.5,50.4,30.06,NNE,26,3.0,5.0,49,0.00,,,0.00,895,Wunderground v.1.15,2013-03-29 19:33:00,
2013-03-29 12:43:00,71.2,50.5,30.05,NW,325,2.0,5.0,48,0.00,,,0.00,789,Wunderground v.1.15,2013-03-29 19:43:00,
2013-03-29 12:48:00,71.3,50.6,30.05,North,355,2.0,5.0,48,0.00,,,0.00,824,Wunderground v.1.15,2013-03-29 19:48:00,
2013-03-29 12:53:00,72.4,51.0,30.05,NNW,332,2.0,5.0,47,0.00,,,0.00,803,Wunderground v.1.15,2013-03-29 19:53:00,
2013-03-29 13:03:00,72.4,50.4,30.05,NNW,333,2.0,5.0,46,0.00,,,0.00,837,Wunderground v.1.15,2013-03-29 20:03:00,
2013-03-29 13:08:00,73.0,50.4,30.05,West,281,2.0,5.0,45,0.00,,,0.00,788,Wunderground v.1.15,2013-03-29 20:08:00,
2013-03-29 13:18:00,73.7,51.0,30.04,North,11,1.0,1.0,45,0.00,,,0.00,865,Wunderground v.1.15,2013-03-29 20:18:00,
2013-03-29 13:23:00,73.8,51.1,30.04,North,351,1.0,3.0,45,0.00,,,0.00,868,Wunderground v.1.15,2013-03-29 20:23:00,
2013-03-29 13:28:00,74.2,50.9,30.04,NE,34,2.0,2.0,44,0.00,,,0.00,854,Wunderground v.1.15,2013-03-29 20:28:00,
2013-03-29 13:33:00,74.2,50.9,30.03,NE,38,1.0,3.0,44,0.00,,,0.00,858,Wunderground v.1.15,2013-03-29 20:33:00,
2013-03-29 13:38:00,74.8,50.8,30.03,NNE,26,1.0,5.0,43,0.00,,,0.00,745,Wunderground v.1.15,2013-03-29 20:38:00,
2013-03-29 13:43:00,75.1,50.4,30.03,NNW,336,2.0,5.0,42,0.00,,,0.00,772,Wunderground v.1.15,2013-03-29 20:43:00,
2013-03-29 13:48:00,74.2,50.9,30.03,NE,35,1.0,1.0,44,0.00,,,0.00,812,Wunderground v.1.15,2013-03-29 20:48:00,
2013-03-29 13:53:00,75.0,51.0,30.03,NE,52,1.0,4.0,43,0.00,,,0.00,895,Wunderground v.1.15,2013-03-29 20:53:00,
2013-03-29 13:58:00,75.7,50.3,30.02,NNW,343,2.0,2.0,41,0.00,,,0.00,874,Wunderground v.1.15,2013-03-29 20:58:00,
2013-03-29 14:08:00,76.6,49.1,30.02,East,88,1.0,1.0,38,0.00,,,0.00,860,Wunderground v.1.15,2013-03-29 21:08:00,
2013-03-29 14:18:00,77.0,49.4,30.02,NNE,17,2.0,5.0,38,0.00,,,0.00,809,Wunderground v.1.15,2013-03-29 21:18:00,
2013-03-29 14:23:00,76.8,49.3,30.01,North,350,2.0,5.0,38,0.00,,,0.00,786,Wunderground v.1.15,2013-03-29 21:23:00,
2013-03-29 14:33:00,77.9,50.2,30.01,North,355,0.0,5.0,38,0.00,,,0.00,788,Wunderground v.1.15,2013-03-29 21:33:00,
2013-03-29 14:38:00,78.0,50.3,30.01,NNW,334,1.0,5.0,38,0.00,,,0.00,796,Wunderground v.1.15,2013-03-29 21:38:00,
2013-03-29 14:43:00,77.6,49.3,30.01,WNW,300,2.0,5.0,37,0.00,,,0.00,805,Wunderground v.1.15,2013-03-29 21:43:00,
2013-03-29 14:48:00,77.5,48.4,30.00,West,263,2.0,5.0,36,0.00,,,0.00,814,Wunderground v.1.15,2013-03-29 21:48:00,
2013-03-29 14:53:00,77.6,50.0,30.00,NW,313,2.0,5.0,38,0.00,,,0.00,744,Wunderground v.1.15,2013-03-29 21:53:00,
2013-03-29 14:58:00,77.7,49.3,30.00,NW,323,1.0,1.0,37,0.00,,,0.00,773,Wunderground v.1.15,2013-03-29 21:58:00,
2013-03-29 15:03:00,78.0,50.3,30.00,WNW,296,1.0,5.0,38,0.00,,,0.00,737,Wunderground v.1.15,2013-03-29 22:03:00,
2013-03-29 15:08:00,77.8,49.4,30.00,WNW,299,1.0,5.0,37,0.00,,,0.00,735,Wunderground v.1.15,2013-03-29 22:08:00,
2013-03-29 15:13:00,77.3,49.7,30.00,NW,312,2.0,5.0,38,0.00,,,0.00,737,Wunderground v.1.15,2013-03-29 22:13:00,
2013-03-29 15:18:00,77.8,50.2,29.99,NNW,331,1.0,5.0,38,0.00,,,0.00,729,Wunderground v.1.15,2013-03-29 22:18:00,
2013-03-29 15:23:00,77.9,49.5,29.99,NNW,331,2.0,5.0,37,0.00,,,0.00,738,Wunderground v.1.15,2013-03-29 22:23:00,
2013-03-29 15:28:00,78.3,49.1,29.99,NE,56,1.0,1.0,36,0.00,,,0.00,436,Wunderground v.1.15,2013-03-29 22:28:00,
2013-03-29 15:33:00,79.3,49.3,29.99,NE,56,0.0,5.0,35,0.00,,,0.00,800,Wunderground v.1.15,2013-03-29 22:33:00,
2013-03-29 15:38:00,79.6,49.5,29.99,NNW,342,1.0,1.0,35,0.00,,,0.00,740,Wunderground v.1.15,2013-03-29 22:38:00,
2013-03-29 15:43:00,78.9,49.7,29.99,WNW,302,2.0,2.0,36,0.00,,,0.00,591,Wunderground v.1.15,2013-03-29 22:43:00,
2013-03-29 15:48:00,78.5,49.3,29.98,North,360,2.0,5.0,36,0.00,,,0.00,622,Wunderground v.1.15,2013-03-29 22:48:00,
2013-03-29 15:53:00,78.5,49.3,29.98,NW,326,1.0,5.0,36,0.00,,,0.00,700,Wunderground v.1.15,2013-03-29 22:53:00,
2013-03-29 16:03:00,79.2,48.4,29.98,West,270,3.0,3.0,34,0.00,,,0.00,624,Wunderground v.1.15,2013-03-29 23:03:00,
2013-03-29 16:08:00,79.5,49.4,29.98,NW,312,2.0,2.0,35,0.00,,,0.00,631,Wunderground v.1.15,2013-03-29 23:08:00,
2013-03-29 16:13:00,79.0,49.0,29.98,NE,36,2.0,5.0,35,0.00,,,0.00,626,Wunderground v.1.15,2013-03-29 23:13:00,
2013-03-29 16:18:00,79.8,49.7,29.98,NNE,31,2.0,5.0,35,0.00,,,0.00,575,Wunderground v.1.15,2013-03-29 23:18:00,
2013-03-29 16:23:00,79.5,48.7,29.98,NE,42,2.0,5.0,34,0.00,,,0.00,596,Wunderground v.1.15,2013-03-29 23:23:00,
2013-03-29 16:28:00,79.4,48.6,29.98,NE,42,2.0,5.0,34,0.00,,,0.00,534,Wunderground v.1.15,2013-03-29 23:28:00,
2013-03-29 16:33:00,79.2,48.4,29.98,WSW,255,1.0,5.0,34,0.00,,,0.00,538,Wunderground v.1.15,2013-03-29 23:33:00,
2013-03-29 16:38:00,79.0,48.2,29.97,West,271,1.0,5.0,34,0.00,,,0.00,427,Wunderground v.1.15,2013-03-29 23:38:00,
2013-03-29 16:43:00,79.1,48.3,29.97,West,271,1.0,5.0,34,0.00,,,0.00,536,Wunderground v.1.15,2013-03-29 23:43:00,
2013-03-29 16:48:00,79.4,48.6,29.98,ENE,59,1.0,1.0,34,0.00,,,0.00,512,Wunderground v.1.15,2013-03-29 23:48:00,
2013-03-29 16:58:00,79.5,48.7,29.97,NNE,18,1.0,1.0,34,0.00,,,0.00,473,Wunderground v.1.15,2013-03-29 23:58:00,
2013-03-29 17:03:00,79.8,48.1,29.97,North,5,0.0,5.0,33,0.00,,,0.00,452,Wunderground v.1.15,2013-03-30 00:03:00,
2013-03-29 17:08:00,79.5,47.9,29.97,North,360,0.0,5.0,33,0.00,,,0.00,432,Wunderground v.1.15,2013-03-30 00:08:00,
2013-03-29 17:13:00,80.0,49.1,29.97,West,273,1.0,5.0,34,0.00,,,0.00,374,Wunderground v.1.15,2013-03-30 00:13:00,
2013-03-29 17:18:00,79.0,48.2,29.97,WSW,258,1.0,5.0,34,0.00,,,0.00,113,Wunderground v.1.15,2013-03-30 00:18:00,
2013-03-29 17:23:00,78.8,48.1,29.97,SSE,160,1.0,5.0,34,0.00,,,0.00,128,Wunderground v.1.15,2013-03-30 00:23:00,
2013-03-29 17:28:00,78.3,48.4,29.97,SSE,161,0.0,5.0,35,0.00,,,0.00,378,Wunderground v.1.15,2013-03-30 00:28:00,
2013-03-29 17:33:00,78.8,48.1,29.97,NW,326,1.0,5.0,34,0.00,,,0.00,169,Wunderground v.1.15,2013-03-30 00:33:00,
2013-03-29 17:38:00,78.9,48.9,29.97,NW,324,1.0,5.0,35,0.00,,,0.00,243,Wunderground v.1.15,2013-03-30 00:38:00,
2013-03-29 17:43:00,78.7,48.7,29.97,WNW,285,2.0,5.0,35,0.00,,,0.00,271,Wunderground v.1.15,2013-03-30 00:43:00,
2013-03-29 17:48:00,78.8,48.8,29.97,NW,306,2.0,5.0,35,0.00,,,0.00,301,Wunderground v.1.15,2013-03-30 00:48:00,
2013-03-29 17:53:00,79.0,49.0,29.97,NW,305,2.0,5.0,35,0.00,,,0.00,315,Wunderground v.1.15,2013-03-30 00:53:00,
2013-03-29 17:58:00,78.9,48.9,29.97,NW,317,2.0,5.0,35,0.00,,,0.00,338,Wunderground v.1.15,2013-03-30 00:58:00,
2013-03-29 18:08:00,78.7,48.7,29.97,NW,326,2.0,2.0,35,0.00,,,0.00,139,Wunderground v.1.15,2013-03-30 01:08:00,
2013-03-29 18:13:00,78.5,48.6,29.97,NNW,340,2.0,5.0,35,0.00,,,0.00,127,Wunderground v.1.15,2013-03-30 01:13:00,
2013-03-29 18:18:00,78.2,48.3,29.97,NNW,339,2.0,5.0,35,0.00,,,0.00,139,Wunderground v.1.15,2013-03-30 01:18:00,
2013-03-29 18:23:00,78.2,48.3,29.97,North,360,2.0,5.0,35,0.00,,,0.00,132,Wunderground v.1.15,2013-03-30 01:23:00,
2013-03-29 18:28:00,78.2,48.3,29.97,NW,320,2.0,5.0,35,0.00,,,0.00,151,Wunderground v.1.15,2013-03-30 01:28:00,
2013-03-29 18:33:00,78.2,48.3,29.97,NW,311,1.0,5.0,35,0.00,,,0.00,123,Wunderground v.1.15,2013-03-30 01:33:00,
2013-03-29 18:38:00,78.1,48.2,29.97,North,351,2.0,5.0,35,0.00,,,0.00,93,Wunderground v.1.15,2013-03-30 01:38:00,
2013-03-29 18:48:00,77.7,47.9,29.97,NNW,332,2.0,2.0,35,0.00,,,0.00,65,Wunderground v.1.15,2013-03-30 01:48:00,
2013-03-29 18:53:00,77.7,47.1,29.97,NNW,329,1.0,5.0,34,0.00,,,0.00,74,Wunderground v.1.15,2013-03-30 01:53:00,
2013-03-29 18:58:00,77.6,47.0,29.97,NNW,327,1.0,5.0,34,0.00,,,0.00,69,Wunderground v.1.15,2013-03-30 01:58:00,
2013-03-29 19:03:00,77.6,47.0,29.97,NNW,328,1.0,5.0,34,0.00,,,0.00,46,Wunderground v.1.15,2013-03-30 02:03:00,
2013-03-29 19:08:00,77.4,46.8,29.97,NNW,335,2.0,5.0,34,0.00,,,0.00,28,Wunderground v.1.15,2013-03-30 02:08:00,
2013-03-29 19:13:00,77.1,46.6,29.96,NNW,329,2.0,5.0,34,0.00,,,0.00,19,Wunderground v.1.15,2013-03-30 02:13:00,
2013-03-29 19:18:00,77.0,46.5,29.96,NNW,328,1.0,5.0,34,0.00,,,0.00,11,Wunderground v.1.15,2013-03-30 02:18:00,
2013-03-29 19:23:00,76.7,46.2,29.96,NW,321,0.0,5.0,34,0.00,,,0.00,7,Wunderground v.1.15,2013-03-30 02:23:00,
2013-03-29 19:28:00,76.4,45.9,29.96,NNW,334,1.0,5.0,34,0.00,,,0.00,0,Wunderground v.1.15,2013-03-30 02:28:00,
2013-03-29 19:33:00,76.3,45.9,29.96,NNW,333,1.0,5.0,34,0.00,,,0.00,0,Wunderground v.1.15,2013-03-30 02:33:00,
2013-03-29 19:38:00,76.2,45.8,29.96,NNW,334,0.0,5.0,34,0.00,,,0.00,0,Wunderground v.1.15,2013-03-30 02:38:00,
2013-03-29 19:43:00,76.0,46.4,29.96,NNW,334,0.0,5.0,35,0.00,,,0.00,0,Wunderground v.1.15,2013-03-30 02:43:00,
2013-03-29 19:53:00,75.7,46.1,29.97,NNE,14,0.0,5.0,35,0.00,,,0.00,0,Wunderground v.1.15,2013-03-30 02:53:00,
2013-03-29 19:58:00,75.6,46.0,29.96,NNE,14,1.0,5.0,35,0.00,,,0.00,0,Wunderground v.1.15,2013-03-30 02:58:00,
2013-03-29 20:03:00,75.5,45.9,29.97,NNE,14,0.0,5.0,35,0.00,,,0.00,0,Wunderground v.1.15,2013-03-30 03:03:00,
2013-03-29 20:08:00,75.4,46.6,29.97,NNE,14,0.0,5.0,36,0.00,,,0.00,0,Wunderground v.1.15,2013-03-30 03:08:00,
2013-03-29 20:13:00,75.3,46.5,29.97,NNE,14,0.0,5.0,36,0.00,,,0.00,0,Wunderground v.1.15,2013-03-30 03:13:00,
2013-03-29 20:18:00,75.1,47.0,29.97,NNE,14,0.0,5.0,37,0.00,,,0.00,0,Wunderground v.1.15,2013-03-30 03:18:00,
2013-03-29 20:28:00,74.7,46.7,29.97,NNE,14,0.0,5.0,37,0.00,,,0.00,0,Wunderground v.1.15,2013-03-30 03:28:00,
2013-03-29 20:33:00,74.4,47.1,29.97,NNE,14,0.0,5.0,38,0.00,,,0.00,0,Wunderground v.1.15,2013-03-30 03:33:00,
2013-03-29 20:38:00,74.3,47.0,29.97,NNE,14,0.0,5.0,38,0.00,,,0.00,0,Wunderground v.1.15,2013-03-30 03:38:00,
2013-03-29 20:43:00,74.0,47.5,29.97,NNE,14,0.0,5.0,39,0.00,,,0.00,0,Wunderground v.1.15,2013-03-30 03:43:00,
2013-03-29 20:45:00,72.7,47.6,29.98,NNE,14,0.0,5.0,41,0.00,,,0.00,0,Wunderground v.1.15,2013-03-30 03:45:00,
2013-03-29 20:48:00,73.8,47.3,29.98,NNE,14,0.0,5.0,39,0.00,,,0.00,0,Wunderground v.1.15,2013-03-30 03:48:00,
2013-03-29 20:50:00,72.6,48.2,29.98,NNE,14,0.0,5.0,42,0.00,,,0.00,0,Wunderground v.1.15,2013-03-30 03:50:00,
2013-03-29 20:55:00,72.3,47.9,29.98,NNE,14,0.0,5.0,42,0.00,,,0.00,0,Wunderground v.1.15,2013-03-30 03:55:00,
2013-03-29 20:58:00,72.9,47.8,29.98,NNE,14,0.0,5.0,41,0.00,,,0.00,0,Wunderground v.1.15,2013-03-30 03:58:00,
2013-03-29 21:00:00,72.0,48.3,29.99,NNE,14,0.0,5.0,43,0.00,,,0.00,0,Wunderground v.1.15,2013-03-30 04:00:00,
2013-03-29 21:05:00,71.8,48.1,29.99,NNE,14,0.0,5.0,43,0.00,,,0.00,0,Wunderground v.1.15,2013-03-30 04:05:00,
2013-03-29 21:10:00,71.7,48.0,29.99,NNE,14,0.0,5.0,43,0.00,,,0.00,0,Wunderground v.1.15,2013-03-30 04:10:00,
2013-03-29 21:15:00,71.4,48.3,29.99,NNE,14,0.0,5.0,44,0.00,,,0.00,0,Wunderground v.1.15,2013-03-30 04:15:00,
2013-03-29 21:20:00,71.4,48.3,29.99,NNE,14,0.0,5.0,44,0.00,,,0.00,0,Wunderground v.1.15,2013-03-30 04:20:00,
2013-03-29 21:25:00,71.3,48.3,29.99,NNE,14,0.0,5.0,44,0.00,,,0.00,0,Wunderground v.1.15,2013-03-30 04:25:00,
2013-03-29 21:30:00,70.9,49.1,29.99,NNE,14,0.0,5.0,46,0.00,,,0.00,0,Wunderground v.1.15,2013-03-30 04:30:00,
2013-03-29 21:35:00,69.7,49.1,29.99,NNE,14,0.0,5.0,48,0.00,,,0.00,0,Wunderground v.1.15,2013-03-30 04:35:00,
2013-03-29 21:40:00,69.2,48.7,29.99,NNE,14,0.0,5.0,48,0.00,,,0.00,0,Wunderground v.1.15,2013-03-30 04:40:00,
2013-03-29 21:45:00,69.3,48.8,29.99,NNE,14,0.0,5.0,48,0.00,,,0.00,0,Wunderground v.1.15,2013-03-30 04:45:00,
2013-03-29 21:50:00,69.2,49.2,29.99,NNE,14,0.0,5.0,49,0.00,,,0.00,0,Wunderground v.1.15,2013-03-30 04:50:00,
2013-03-29 21:55:00,69.0,49.0,29.99,NNE,14,0.0,5.0,49,0.00,,,0.00,0,Wunderground v.1.15,2013-03-30 04:55:00,
2013-03-29 22:00:00,68.6,49.2,29.99,NNE,14,0.0,5.0,50,0.00,,,0.00,0,Wunderground v.1.15,2013-03-30 05:00:00,
2013-03-29 22:05:00,67.6,48.8,30.00,NNE,14,0.0,5.0,51,0.00,,,0.00,0,Wunderground v.1.15,2013-03-30 05:05:00,
2013-03-29 22:10:00,67.1,49.4,30.00,NNE,14,0.0,5.0,53,0.00,,,0.00,0,Wunderground v.1.15,2013-03-30 05:10:00,
2013-03-29 22:15:00,66.9,49.2,30.00,NNE,14,0.0,5.0,53,0.00,,,0.00,0,Wunderground v.1.15,2013-03-30 05:15:00,
2013-03-29 22:20:00,67.0,49.3,30.00,NNE,14,0.0,5.0,53,0.00,,,0.00,0,Wunderground v.1.15,2013-03-30 05:20:00,
2013-03-29 22:25:00,66.4,49.2,30.00,NNE,14,0.0,5.0,54,0.00,,,0.00,0,Wunderground v.1.15,2013-03-30 05:25:00,
2013-03-29 22:30:00,65.9,49.8,30.00,NNE,14,0.0,5.0,56,0.00,,,0.00,0,Wunderground v.1.15,2013-03-30 05:30:00,
2013-03-29 22:35:00,65.6,49.5,30.00,NNE,14,0.0,5.0,56,0.00,,,0.00,0,Wunderground v.1.15,2013-03-30 05:35:00,
2013-03-29 22:40:00,65.6,49.5,30.00,NNE,14,0.0,5.0,56,0.00,,,0.00,0,Wunderground v.1.15,2013-03-30 05:40:00,
2013-03-29 22:45:00,65.6,49.5,30.00,NNE,14,0.0,5.0,56,0.00,,,0.00,0,Wunderground v.1.15,2013-03-30 05:45:00,
2013-03-29 22:50:00,65.6,49.5,29.99,NNE,14,0.0,5.0,56,0.00,,,0.00,0,Wunderground v.1.15,2013-03-30 05:50:00,
2013-03-29 22:55:00,65.5,49.4,29.99,NNE,14,0.0,5.0,56,0.00,,,0.00,0,Wunderground v.1.15,2013-03-30 05:55:00,
2013-03-29 23:00:00,65.2,49.6,29.99,NNE,14,0.0,5.0,57,0.00,,,0.00,0,Wunderground v.1.15,2013-03-30 06:00:00,
2013-03-29 23:05:00,65.1,49.5,29.99,NNE,14,0.0,5.0,57,0.00,,,0.00,0,Wunderground v.1.15,2013-03-30 06:05:00,
2013-03-29 23:10:00,64.9,49.3,29.99,NNE,14,0.0,5.0,57,0.00,,,0.00,0,Wunderground v.1.15,2013-03-30 06:10:00,
2013-03-29 23:15:00,64.3,49.7,29.99,NNE,14,0.0,5.0,59,0.00,,,0.00,0,Wunderground v.1.15,2013-03-30 06:15:00,
2013-03-29 23:20:00,63.4,49.7,29.99,NNE,14,0.0,5.0,61,0.00,,,0.00,0,Wunderground v.1.15,2013-03-30 06:20:00,
2013-03-29 23:25:00,63.1,49.9,29.99,NNE,14,0.0,5.0,62,0.00,,,0.00,0,Wunderground v.1.15,2013-03-30 06:25:00,
2013-03-29 23:30:00,63.3,49.6,29.99,NNE,14,0.0,5.0,61,0.00,,,0.00,0,Wunderground v.1.15,2013-03-30 06:30:00,
2013-03-29 23:35:00,63.4,50.1,29.99,NNE,14,0.0,5.0,62,0.00,,,0.00,0,Wunderground v.1.15,2013-03-30 06:35:00,
2013-03-29 23:40:00,63.5,50.2,29.99,NNE,14,0.0,5.0,62,0.00,,,0.00,0,Wunderground v.1.15,2013-03-30 06:40:00,
2013-03-29 23:45:00,63.1,50.7,29.99,NNE,14,0.0,5.0,64,0.00,,,0.00,0,Wunderground v.1.15,2013-03-30 06:45:00,
2013-03-29 23:50:00,63.0,50.6,29.99,NNE,14,0.0,5.0,64,0.00,,,0.00,0,Wunderground v.1.15,2013-03-30 06:50:00,
2013-03-29 23:55:00,62.8,51.3,29.99,NNE,14,0.0,5.0,66,0.00,,,0.00,0,Wunderground v.1.15,2013-03-30 06:55:00,